sensor_id;sensor_type;location;lat;lon;timestamp;P1;durP1;ratioP1;P2;durP2;ratioP2
43857;SDS011;29507;51.284;5.758;2023-03-24T00:00:11;3.55;;;1.38;;
43857;SDS011;29507;51.284;5.758;2023-03-24T00:02:39;6.03;;;2.08;;
43857;SDS011;29507;51.284;5.758;2023-03-24T00:05:07;6.03;;;2.20;;
43857;SDS011;29507;51.284;5.758;2023-03-24T00:07:37;3.95;;;1.75;;
43857;SDS011;29507;51.284;5.758;2023-03-24T00:10:04;4.20;;;2.00;;
43857;SDS011;29507;51.284;5.758;2023-03-24T00:12:32;4.80;;;2.08;;
43857;SDS011;29507;51.284;5.758;2023-03-24T00:15:02;3.92;;;1.65;;
43857;SDS011;29507;51.284;5.758;2023-03-24T00:17:32;4.32;;;1.75;;
43857;SDS011;29507;51.284;5.758;2023-03-24T00:20:00;4.45;;;2.42;;
43857;SDS011;29507;51.284;5.758;2023-03-24T00:22:26;4.97;;;2.13;;
43857;SDS011;29507;51.284;5.758;2023-03-24T00:24:52;5.50;;;1.65;;
43857;SDS011;29507;51.284;5.758;2023-03-24T00:27:18;5.32;;;1.90;;
43857;SDS011;29507;51.284;5.758;2023-03-24T00:29:45;4.80;;;1.73;;
43857;SDS011;29507;51.284;5.758;2023-03-24T00:32:10;4.07;;;1.88;;
43857;SDS011;29507;51.284;5.758;2023-03-24T00:34:36;4.20;;;1.85;;
43857;SDS011;29507;51.284;5.758;2023-03-24T00:37:03;5.75;;;1.55;;
43857;SDS011;29507;51.284;5.758;2023-03-24T00:39:30;4.07;;;2.15;;
43857;SDS011;29507;51.284;5.758;2023-03-24T00:41:56;5.60;;;2.03;;
43857;SDS011;29507;51.284;5.758;2023-03-24T00:44:22;3.95;;;1.73;;
43857;SDS011;29507;51.284;5.758;2023-03-24T00:46:49;4.10;;;1.92;;
43857;SDS011;29507;51.284;5.758;2023-03-24T00:49:19;3.92;;;1.88;;
43857;SDS011;29507;51.284;5.758;2023-03-24T00:52:11;6.05;;;2.28;;
43857;SDS011;29507;51.284;5.758;2023-03-24T00:54:38;3.58;;;1.60;;
43857;SDS011;29507;51.284;5.758;2023-03-24T00:57:05;3.88;;;1.73;;
43857;SDS011;29507;51.284;5.758;2023-03-24T00:59:31;5.18;;;1.80;;
43857;SDS011;29507;51.284;5.758;2023-03-24T01:02:02;4.78;;;1.80;;
43857;SDS011;29507;51.284;5.758;2023-03-24T01:04:28;5.25;;;2.00;;
43857;SDS011;29507;51.284;5.758;2023-03-24T01:06:54;8.48;;;2.05;;
43857;SDS011;29507;51.284;5.758;2023-03-24T01:09:22;5.18;;;2.08;;
43857;SDS011;29507;51.284;5.758;2023-03-24T01:11:48;2.92;;;1.42;;
43857;SDS011;29507;51.284;5.758;2023-03-24T01:14:14;4.38;;;1.73;;
43857;SDS011;29507;51.284;5.758;2023-03-24T01:16:40;4.72;;;1.80;;
43857;SDS011;29507;51.284;5.758;2023-03-24T01:19:06;4.63;;;1.90;;
43857;SDS011;29507;51.284;5.758;2023-03-24T01:21:35;3.40;;;1.40;;
43857;SDS011;29507;51.284;5.758;2023-03-24T01:24:03;6.80;;;1.95;;
43857;SDS011;29507;51.284;5.758;2023-03-24T01:26:29;5.43;;;1.90;;
43857;SDS011;29507;51.284;5.758;2023-03-24T01:28:55;4.72;;;1.77;;
43857;SDS011;29507;51.284;5.758;2023-03-24T01:31:21;4.35;;;1.80;;
43857;SDS011;29507;51.284;5.758;2023-03-24T01:33:46;2.78;;;1.40;;
43857;SDS011;29507;51.284;5.758;2023-03-24T01:36:12;2.92;;;1.75;;
43857;SDS011;29507;51.284;5.758;2023-03-24T01:38:38;2.78;;;1.60;;
43857;SDS011;29507;51.284;5.758;2023-03-24T01:41:03;6.78;;;2.05;;
43857;SDS011;29507;51.284;5.758;2023-03-24T01:43:31;5.38;;;2.03;;
43857;SDS011;29507;51.284;5.758;2023-03-24T01:51:00;6.53;;;2.10;;
43857;SDS011;29507;51.284;5.758;2023-03-24T01:53:29;5.03;;;1.77;;
43857;SDS011;29507;51.284;5.758;2023-03-24T01:55:56;5.20;;;2.20;;
43857;SDS011;29507;51.284;5.758;2023-03-24T01:58:24;3.25;;;1.83;;
43857;SDS011;29507;51.284;5.758;2023-03-24T02:00:52;5.50;;;2.30;;
43857;SDS011;29507;51.284;5.758;2023-03-24T02:03:18;4.53;;;2.25;;
43857;SDS011;29507;51.284;5.758;2023-03-24T02:05:48;4.88;;;2.30;;
43857;SDS011;29507;51.284;5.758;2023-03-24T02:08:18;5.70;;;2.03;;
43857;SDS011;29507;51.284;5.758;2023-03-24T02:10:52;5.25;;;1.98;;
43857;SDS011;29507;51.284;5.758;2023-03-24T02:13:19;5.35;;;2.00;;
43857;SDS011;29507;51.284;5.758;2023-03-24T02:40:50;4.20;;;2.35;;
43857;SDS011;29507;51.284;5.758;2023-03-24T02:51:16;7.15;;;2.20;;
43857;SDS011;29507;51.284;5.758;2023-03-24T02:59:18;5.28;;;1.92;;
43857;SDS011;29507;51.284;5.758;2023-03-24T03:02:06;4.38;;;2.00;;
43857;SDS011;29507;51.284;5.758;2023-03-24T03:04:37;3.63;;;2.00;;
43857;SDS011;29507;51.284;5.758;2023-03-24T03:07:14;5.60;;;2.00;;
43857;SDS011;29507;51.284;5.758;2023-03-24T03:12:39;4.13;;;1.95;;
43857;SDS011;29507;51.284;5.758;2023-03-24T03:15:13;3.97;;;2.00;;
43857;SDS011;29507;51.284;5.758;2023-03-24T03:17:47;3.72;;;1.70;;
43857;SDS011;29507;51.284;5.758;2023-03-24T03:20:19;4.95;;;2.00;;
43857;SDS011;29507;51.284;5.758;2023-03-24T03:22:50;3.47;;;2.08;;
43857;SDS011;29507;51.284;5.758;2023-03-24T03:25:29;3.53;;;1.50;;
43857;SDS011;29507;51.284;5.758;2023-03-24T03:27:59;4.97;;;1.98;;
43857;SDS011;29507;51.284;5.758;2023-03-24T03:30:31;3.20;;;1.60;;
43857;SDS011;29507;51.284;5.758;2023-03-24T03:33:05;4.38;;;1.85;;
43857;SDS011;29507;51.284;5.758;2023-03-24T03:35:47;5.00;;;2.00;;
43857;SDS011;29507;51.284;5.758;2023-03-24T03:38:25;4.40;;;1.95;;
43857;SDS011;29507;51.284;5.758;2023-03-24T03:40:58;5.57;;;1.98;;
43857;SDS011;29507;51.284;5.758;2023-03-24T03:43:26;3.13;;;1.10;;
43857;SDS011;29507;51.284;5.758;2023-03-24T03:45:54;1.80;;;0.80;;
43857;SDS011;29507;51.284;5.758;2023-03-24T03:48:20;1.98;;;0.80;;
43857;SDS011;29507;51.284;5.758;2023-03-24T03:50:46;1.27;;;0.57;;
43857;SDS011;29507;51.284;5.758;2023-03-24T03:53:12;4.22;;;1.10;;
43857;SDS011;29507;51.284;5.758;2023-03-24T03:55:41;1.52;;;0.70;;
43857;SDS011;29507;51.284;5.758;2023-03-24T03:58:07;1.77;;;0.50;;
43857;SDS011;29507;51.284;5.758;2023-03-24T04:00:32;1.20;;;0.60;;
43857;SDS011;29507;51.284;5.758;2023-03-24T04:14:18;3.38;;;1.08;;
43857;SDS011;29507;51.284;5.758;2023-03-24T04:17:05;2.65;;;0.88;;
43857;SDS011;29507;51.284;5.758;2023-03-24T04:32:57;3.83;;;0.70;;
43857;SDS011;29507;51.284;5.758;2023-03-24T04:35:45;3.55;;;0.70;;
43857;SDS011;29507;51.284;5.758;2023-03-24T04:38:17;3.63;;;0.85;;
43857;SDS011;29507;51.284;5.758;2023-03-24T04:40:49;3.13;;;1.20;;
43857;SDS011;29507;51.284;5.758;2023-03-24T04:43:19;2.35;;;1.10;;
43857;SDS011;29507;51.284;5.758;2023-03-24T04:45:49;4.05;;;0.90;;
43857;SDS011;29507;51.284;5.758;2023-03-24T04:48:16;2.10;;;0.80;;
43857;SDS011;29507;51.284;5.758;2023-03-24T04:50:47;5.60;;;0.93;;
43857;SDS011;29507;51.284;5.758;2023-03-24T04:53:18;4.70;;;0.68;;
43857;SDS011;29507;51.284;5.758;2023-03-24T04:58:32;4.75;;;0.90;;
43857;SDS011;29507;51.284;5.758;2023-03-24T05:00:58;6.20;;;1.20;;
43857;SDS011;29507;51.284;5.758;2023-03-24T05:03:23;4.43;;;0.77;;
43857;SDS011;29507;51.284;5.758;2023-03-24T05:05:50;2.78;;;0.70;;
43857;SDS011;29507;51.284;5.758;2023-03-24T05:08:17;3.05;;;0.75;;
43857;SDS011;29507;51.284;5.758;2023-03-24T05:10:44;4.40;;;1.02;;
43857;SDS011;29507;51.284;5.758;2023-03-24T05:13:10;4.07;;;1.33;;
43857;SDS011;29507;51.284;5.758;2023-03-24T05:15:37;7.25;;;1.00;;
43857;SDS011;29507;51.284;5.758;2023-03-24T05:18:03;6.50;;;0.90;;
43857;SDS011;29507;51.284;5.758;2023-03-24T05:20:29;7.18;;;0.95;;
43857;SDS011;29507;51.284;5.758;2023-03-24T05:22:54;7.75;;;1.10;;
43857;SDS011;29507;51.284;5.758;2023-03-24T05:25:20;3.50;;;0.70;;
43857;SDS011;29507;51.284;5.758;2023-03-24T05:27:46;5.55;;;1.25;;
43857;SDS011;29507;51.284;5.758;2023-03-24T05:30:12;4.65;;;1.20;;
43857;SDS011;29507;51.284;5.758;2023-03-24T05:32:38;7.50;;;1.25;;
43857;SDS011;29507;51.284;5.758;2023-03-24T05:35:04;7.20;;;1.80;;
43857;SDS011;29507;51.284;5.758;2023-03-24T05:37:30;5.72;;;1.08;;
43857;SDS011;29507;51.284;5.758;2023-03-24T05:39:56;6.93;;;0.85;;
43857;SDS011;29507;51.284;5.758;2023-03-24T05:42:22;5.18;;;1.35;;
43857;SDS011;29507;51.284;5.758;2023-03-24T05:44:48;10.50;;;1.52;;
43857;SDS011;29507;51.284;5.758;2023-03-24T05:47:13;8.50;;;1.45;;
43857;SDS011;29507;51.284;5.758;2023-03-24T05:49:43;5.65;;;1.33;;
43857;SDS011;29507;51.284;5.758;2023-03-24T05:52:09;9.18;;;1.40;;
43857;SDS011;29507;51.284;5.758;2023-03-24T05:54:35;14.40;;;2.65;;
43857;SDS011;29507;51.284;5.758;2023-03-24T05:57:03;4.72;;;0.60;;
43857;SDS011;29507;51.284;5.758;2023-03-24T05:59:32;5.22;;;1.52;;
43857;SDS011;29507;51.284;5.758;2023-03-24T06:01:58;3.90;;;1.00;;
43857;SDS011;29507;51.284;5.758;2023-03-24T06:04:24;9.20;;;1.48;;
43857;SDS011;29507;51.284;5.758;2023-03-24T06:09:20;11.50;;;1.42;;
43857;SDS011;29507;51.284;5.758;2023-03-24T06:11:45;6.95;;;1.58;;
43857;SDS011;29507;51.284;5.758;2023-03-24T06:14:11;4.70;;;1.20;;
43857;SDS011;29507;51.284;5.758;2023-03-24T06:16:37;9.57;;;1.48;;
43857;SDS011;29507;51.284;5.758;2023-03-24T06:19:02;7.68;;;1.38;;
43857;SDS011;29507;51.284;5.758;2023-03-24T06:21:30;7.55;;;1.17;;
43857;SDS011;29507;51.284;5.758;2023-03-24T06:23:57;8.50;;;1.58;;
43857;SDS011;29507;51.284;5.758;2023-03-24T06:26:23;4.55;;;0.73;;
43857;SDS011;29507;51.284;5.758;2023-03-24T06:28:49;14.18;;;2.00;;
43857;SDS011;29507;51.284;5.758;2023-03-24T06:31:18;4.03;;;0.88;;
43857;SDS011;29507;51.284;5.758;2023-03-24T06:33:45;11.40;;;1.90;;
43857;SDS011;29507;51.284;5.758;2023-03-24T06:36:12;11.80;;;2.08;;
43857;SDS011;29507;51.284;5.758;2023-03-24T06:38:39;5.18;;;1.35;;
43857;SDS011;29507;51.284;5.758;2023-03-24T06:41:05;11.93;;;1.20;;
43857;SDS011;29507;51.284;5.758;2023-03-24T06:43:31;5.25;;;1.00;;
43857;SDS011;29507;51.284;5.758;2023-03-24T06:45:57;9.60;;;1.45;;
43857;SDS011;29507;51.284;5.758;2023-03-24T06:48:23;5.55;;;1.10;;
43857;SDS011;29507;51.284;5.758;2023-03-24T06:50:53;8.07;;;1.63;;
43857;SDS011;29507;51.284;5.758;2023-03-24T06:53:20;11.80;;;1.27;;
43857;SDS011;29507;51.284;5.758;2023-03-24T06:55:46;6.18;;;1.23;;
43857;SDS011;29507;51.284;5.758;2023-03-24T06:58:12;5.82;;;1.08;;
43857;SDS011;29507;51.284;5.758;2023-03-24T07:00:39;10.80;;;1.25;;
43857;SDS011;29507;51.284;5.758;2023-03-24T07:03:05;13.75;;;1.42;;
43857;SDS011;29507;51.284;5.758;2023-03-24T07:05:32;8.70;;;1.38;;
43857;SDS011;29507;51.284;5.758;2023-03-24T07:08:08;5.30;;;1.38;;
43857;SDS011;29507;51.284;5.758;2023-03-24T07:10:39;8.23;;;1.60;;
43857;SDS011;29507;51.284;5.758;2023-03-24T07:13:05;7.88;;;1.08;;
43857;SDS011;29507;51.284;5.758;2023-03-24T07:15:32;12.70;;;1.52;;
43857;SDS011;29507;51.284;5.758;2023-03-24T07:17:57;9.88;;;1.40;;
43857;SDS011;29507;51.284;5.758;2023-03-24T07:20:23;7.25;;;1.20;;
43857;SDS011;29507;51.284;5.758;2023-03-24T07:22:49;10.13;;;1.33;;
43857;SDS011;29507;51.284;5.758;2023-03-24T07:25:14;8.88;;;1.23;;
43857;SDS011;29507;51.284;5.758;2023-03-24T07:27:44;6.43;;;1.30;;
43857;SDS011;29507;51.284;5.758;2023-03-24T07:30:10;10.82;;;2.00;;
43857;SDS011;29507;51.284;5.758;2023-03-24T07:32:37;7.07;;;1.20;;
43857;SDS011;29507;51.284;5.758;2023-03-24T07:35:07;8.23;;;1.42;;
43857;SDS011;29507;51.284;5.758;2023-03-24T07:37:37;9.52;;;1.27;;
43857;SDS011;29507;51.284;5.758;2023-03-24T07:40:04;10.00;;;1.45;;
43857;SDS011;29507;51.284;5.758;2023-03-24T07:42:33;10.40;;;1.63;;
43857;SDS011;29507;51.284;5.758;2023-03-24T07:44:58;9.65;;;1.60;;
43857;SDS011;29507;51.284;5.758;2023-03-24T07:47:24;4.95;;;1.17;;
43857;SDS011;29507;51.284;5.758;2023-03-24T07:49:50;8.70;;;1.58;;
43857;SDS011;29507;51.284;5.758;2023-03-24T07:52:16;9.02;;;2.25;;
43857;SDS011;29507;51.284;5.758;2023-03-24T07:54:41;11.25;;;1.92;;
43857;SDS011;29507;51.284;5.758;2023-03-24T07:57:07;6.32;;;1.77;;
43857;SDS011;29507;51.284;5.758;2023-03-24T07:59:32;10.00;;;1.70;;
43857;SDS011;29507;51.284;5.758;2023-03-24T08:01:58;7.03;;;1.42;;
43857;SDS011;29507;51.284;5.758;2023-03-24T08:04:24;7.07;;;1.20;;
43857;SDS011;29507;51.284;5.758;2023-03-24T08:06:51;11.63;;;1.63;;
43857;SDS011;29507;51.284;5.758;2023-03-24T08:09:17;11.30;;;1.95;;
43857;SDS011;29507;51.284;5.758;2023-03-24T08:11:43;9.52;;;1.67;;
43857;SDS011;29507;51.284;5.758;2023-03-24T08:14:09;8.18;;;1.75;;
43857;SDS011;29507;51.284;5.758;2023-03-24T08:16:35;7.32;;;1.20;;
43857;SDS011;29507;51.284;5.758;2023-03-24T08:19:03;5.43;;;0.90;;
43857;SDS011;29507;51.284;5.758;2023-03-24T08:21:29;9.18;;;1.42;;
43857;SDS011;29507;51.284;5.758;2023-03-24T08:23:54;9.52;;;1.67;;
43857;SDS011;29507;51.284;5.758;2023-03-24T08:26:20;12.25;;;1.80;;
43857;SDS011;29507;51.284;5.758;2023-03-24T08:28:46;11.20;;;1.45;;
43857;SDS011;29507;51.284;5.758;2023-03-24T08:31:13;6.93;;;0.98;;
43857;SDS011;29507;51.284;5.758;2023-03-24T08:33:39;8.90;;;1.77;;
43857;SDS011;29507;51.284;5.758;2023-03-24T08:36:05;6.85;;;1.15;;
43857;SDS011;29507;51.284;5.758;2023-03-24T08:38:32;5.68;;;1.40;;
43857;SDS011;29507;51.284;5.758;2023-03-24T08:40:58;8.77;;;1.75;;
43857;SDS011;29507;51.284;5.758;2023-03-24T08:43:29;13.27;;;1.92;;
43857;SDS011;29507;51.284;5.758;2023-03-24T08:45:55;7.30;;;1.13;;
43857;SDS011;29507;51.284;5.758;2023-03-24T08:48:22;10.60;;;1.63;;
43857;SDS011;29507;51.284;5.758;2023-03-24T08:50:47;6.25;;;1.83;;
43857;SDS011;29507;51.284;5.758;2023-03-24T08:53:14;8.63;;;1.63;;
43857;SDS011;29507;51.284;5.758;2023-03-24T08:55:40;9.48;;;1.35;;
43857;SDS011;29507;51.284;5.758;2023-03-24T08:58:14;8.00;;;0.98;;
43857;SDS011;29507;51.284;5.758;2023-03-24T09:00:41;5.38;;;1.27;;
43857;SDS011;29507;51.284;5.758;2023-03-24T09:03:09;11.05;;;1.15;;
43857;SDS011;29507;51.284;5.758;2023-03-24T09:05:38;10.52;;;1.00;;
43857;SDS011;29507;51.284;5.758;2023-03-24T09:08:04;6.40;;;1.13;;
43857;SDS011;29507;51.284;5.758;2023-03-24T09:10:31;6.35;;;1.08;;
43857;SDS011;29507;51.284;5.758;2023-03-24T09:12:57;6.55;;;1.15;;
43857;SDS011;29507;51.284;5.758;2023-03-24T09:15:23;8.88;;;1.25;;
43857;SDS011;29507;51.284;5.758;2023-03-24T09:17:49;9.95;;;0.95;;
43857;SDS011;29507;51.284;5.758;2023-03-24T09:20:14;8.80;;;1.40;;
43857;SDS011;29507;51.284;5.758;2023-03-24T09:22:40;6.07;;;1.30;;
43857;SDS011;29507;51.284;5.758;2023-03-24T09:25:08;9.30;;;1.30;;
43857;SDS011;29507;51.284;5.758;2023-03-24T09:27:36;6.05;;;1.17;;
43857;SDS011;29507;51.284;5.758;2023-03-24T09:30:03;5.35;;;1.02;;
43857;SDS011;29507;51.284;5.758;2023-03-24T09:32:30;5.72;;;1.30;;
43857;SDS011;29507;51.284;5.758;2023-03-24T09:34:57;5.55;;;0.73;;
43857;SDS011;29507;51.284;5.758;2023-03-24T09:37:23;6.00;;;0.75;;
43857;SDS011;29507;51.284;5.758;2023-03-24T09:39:49;5.80;;;0.90;;
43857;SDS011;29507;51.284;5.758;2023-03-24T09:42:22;8.25;;;1.58;;
43857;SDS011;29507;51.284;5.758;2023-03-24T09:44:51;4.45;;;0.95;;
43857;SDS011;29507;51.284;5.758;2023-03-24T09:47:30;4.70;;;1.00;;
43857;SDS011;29507;51.284;5.758;2023-03-24T09:52:52;6.45;;;0.98;;
43857;SDS011;29507;51.284;5.758;2023-03-24T09:55:22;9.48;;;1.40;;
43857;SDS011;29507;51.284;5.758;2023-03-24T09:57:49;4.40;;;1.00;;
43857;SDS011;29507;51.284;5.758;2023-03-24T10:02:47;7.50;;;0.95;;
43857;SDS011;29507;51.284;5.758;2023-03-24T10:05:19;4.07;;;1.00;;
43857;SDS011;29507;51.284;5.758;2023-03-24T10:11:00;7.10;;;0.80;;
43857;SDS011;29507;51.284;5.758;2023-03-24T10:22:18;3.90;;;0.85;;
43857;SDS011;29507;51.284;5.758;2023-03-24T10:27:59;9.38;;;0.90;;
43857;SDS011;29507;51.284;5.758;2023-03-24T10:30:33;3.90;;;1.08;;
43857;SDS011;29507;51.284;5.758;2023-03-24T10:33:03;9.55;;;1.25;;
43857;SDS011;29507;51.284;5.758;2023-03-24T10:35:31;7.80;;;1.00;;
43857;SDS011;29507;51.284;5.758;2023-03-24T10:37:59;8.10;;;1.17;;
43857;SDS011;29507;51.284;5.758;2023-03-24T10:40:31;6.20;;;1.10;;
43857;SDS011;29507;51.284;5.758;2023-03-24T10:42:57;8.05;;;1.50;;
43857;SDS011;29507;51.284;5.758;2023-03-24T10:45:27;5.82;;;0.93;;
43857;SDS011;29507;51.284;5.758;2023-03-24T10:47:56;8.15;;;0.88;;
43857;SDS011;29507;51.284;5.758;2023-03-24T10:50:25;4.95;;;0.95;;
43857;SDS011;29507;51.284;5.758;2023-03-24T10:52:53;11.75;;;2.40;;
43857;SDS011;29507;51.284;5.758;2023-03-24T10:55:20;9.93;;;1.02;;
43857;SDS011;29507;51.284;5.758;2023-03-24T10:57:52;5.50;;;1.23;;
43857;SDS011;29507;51.284;5.758;2023-03-24T11:00:24;7.32;;;0.95;;
43857;SDS011;29507;51.284;5.758;2023-03-24T11:02:58;6.93;;;1.58;;
43857;SDS011;29507;51.284;5.758;2023-03-24T11:05:28;5.72;;;1.15;;
43857;SDS011;29507;51.284;5.758;2023-03-24T11:10:41;6.72;;;1.08;;
43857;SDS011;29507;51.284;5.758;2023-03-24T11:13:15;6.97;;;1.58;;
43857;SDS011;29507;51.284;5.758;2023-03-24T11:15:51;5.20;;;0.90;;
43857;SDS011;29507;51.284;5.758;2023-03-24T11:18:36;9.57;;;1.58;;
43857;SDS011;29507;51.284;5.758;2023-03-24T11:21:02;5.72;;;0.90;;
43857;SDS011;29507;51.284;5.758;2023-03-24T11:26:29;9.43;;;1.40;;
43857;SDS011;29507;51.284;5.758;2023-03-24T11:29:02;6.97;;;1.00;;
43857;SDS011;29507;51.284;5.758;2023-03-24T11:31:39;7.43;;;1.33;;
43857;SDS011;29507;51.284;5.758;2023-03-24T11:34:07;6.13;;;1.17;;
43857;SDS011;29507;51.284;5.758;2023-03-24T11:36:40;5.13;;;0.98;;
43857;SDS011;29507;51.284;5.758;2023-03-24T11:39:12;6.43;;;1.63;;
43857;SDS011;29507;51.284;5.758;2023-03-24T11:42:03;4.57;;;1.00;;
43857;SDS011;29507;51.284;5.758;2023-03-24T11:44:51;3.60;;;0.68;;
43857;SDS011;29507;51.284;5.758;2023-03-24T11:50:18;3.78;;;0.93;;
43857;SDS011;29507;51.284;5.758;2023-03-24T11:53:02;5.93;;;1.30;;
43857;SDS011;29507;51.284;5.758;2023-03-24T11:55:37;5.53;;;1.20;;
43857;SDS011;29507;51.284;5.758;2023-03-24T12:00:56;7.00;;;1.73;;
43857;SDS011;29507;51.284;5.758;2023-03-24T12:03:47;5.50;;;1.08;;
43857;SDS011;29507;51.284;5.758;2023-03-24T12:06:38;4.22;;;1.13;;
43857;SDS011;29507;51.284;5.758;2023-03-24T12:12:03;6.45;;;1.10;;
43857;SDS011;29507;51.284;5.758;2023-03-24T12:26:18;5.28;;;1.05;;
43857;SDS011;29507;51.284;5.758;2023-03-24T12:36:56;6.00;;;0.88;;
43857;SDS011;29507;51.284;5.758;2023-03-24T12:39:31;9.90;;;0.80;;
43857;SDS011;29507;51.284;5.758;2023-03-24T12:44:31;6.40;;;1.45;;
43857;SDS011;29507;51.284;5.758;2023-03-24T12:52:51;5.07;;;0.85;;
43857;SDS011;29507;51.284;5.758;2023-03-24T12:57:55;2.40;;;0.60;;
43857;SDS011;29507;51.284;5.758;2023-03-24T13:00:25;3.78;;;0.73;;
43857;SDS011;29507;51.284;5.758;2023-03-24T13:02:56;3.70;;;0.80;;
43857;SDS011;29507;51.284;5.758;2023-03-24T13:05:31;5.45;;;1.00;;
43857;SDS011;29507;51.284;5.758;2023-03-24T13:08:01;4.07;;;0.73;;
43857;SDS011;29507;51.284;5.758;2023-03-24T13:10:35;6.70;;;0.73;;
43857;SDS011;29507;51.284;5.758;2023-03-24T13:13:16;6.85;;;1.02;;
43857;SDS011;29507;51.284;5.758;2023-03-24T13:16:20;5.15;;;0.73;;
43857;SDS011;29507;51.284;5.758;2023-03-24T13:18:52;4.45;;;0.88;;
43857;SDS011;29507;51.284;5.758;2023-03-24T13:21:23;2.80;;;0.93;;
43857;SDS011;29507;51.284;5.758;2023-03-24T13:23:57;1.95;;;0.65;;
43857;SDS011;29507;51.284;5.758;2023-03-24T13:31:51;4.32;;;0.80;;
43857;SDS011;29507;51.284;5.758;2023-03-24T13:39:44;4.47;;;0.98;;
43857;SDS011;29507;51.284;5.758;2023-03-24T13:42:30;6.30;;;0.80;;
43857;SDS011;29507;51.284;5.758;2023-03-24T13:44:56;5.10;;;0.98;;
43857;SDS011;29507;51.284;5.758;2023-03-24T13:47:25;5.90;;;1.38;;
43857;SDS011;29507;51.284;5.758;2023-03-24T13:50:03;3.92;;;1.00;;
43857;SDS011;29507;51.284;5.758;2023-03-24T13:52:39;1.85;;;0.70;;
43857;SDS011;29507;51.284;5.758;2023-03-24T13:55:14;7.22;;;0.98;;
43857;SDS011;29507;51.284;5.758;2023-03-24T13:58:04;5.20;;;1.00;;
43857;SDS011;29507;51.284;5.758;2023-03-24T14:01:03;6.90;;;1.38;;
43857;SDS011;29507;51.284;5.758;2023-03-24T14:03:39;7.07;;;1.30;;
43857;SDS011;29507;51.284;5.758;2023-03-24T14:06:07;9.73;;;2.40;;
43857;SDS011;29507;51.284;5.758;2023-03-24T14:14:06;3.63;;;1.00;;
43857;SDS011;29507;51.284;5.758;2023-03-24T14:19:38;6.97;;;1.00;;
43857;SDS011;29507;51.284;5.758;2023-03-24T14:22:14;5.17;;;0.90;;
43857;SDS011;29507;51.284;5.758;2023-03-24T14:27:40;6.00;;;0.82;;
43857;SDS011;29507;51.284;5.758;2023-03-24T14:32:46;5.55;;;1.05;;
43857;SDS011;29507;51.284;5.758;2023-03-24T14:35:28;5.43;;;1.23;;
43857;SDS011;29507;51.284;5.758;2023-03-24T14:37:59;6.95;;;1.50;;
43857;SDS011;29507;51.284;5.758;2023-03-24T14:40:37;4.40;;;1.13;;
43857;SDS011;29507;51.284;5.758;2023-03-24T14:50:54;5.65;;;0.90;;
43857;SDS011;29507;51.284;5.758;2023-03-24T14:53:25;6.10;;;1.15;;
43857;SDS011;29507;51.284;5.758;2023-03-24T14:55:51;4.28;;;0.85;;
43857;SDS011;29507;51.284;5.758;2023-03-24T14:58:36;4.97;;;1.00;;
43857;SDS011;29507;51.284;5.758;2023-03-24T15:01:08;4.07;;;0.80;;
43857;SDS011;29507;51.284;5.758;2023-03-24T15:06:19;6.47;;;2.05;;
43857;SDS011;29507;51.284;5.758;2023-03-24T15:11:29;4.05;;;0.70;;
43857;SDS011;29507;51.284;5.758;2023-03-24T15:13:58;5.72;;;0.68;;
43857;SDS011;29507;51.284;5.758;2023-03-24T15:16:26;3.20;;;0.73;;
43857;SDS011;29507;51.284;5.758;2023-03-24T15:18:54;3.35;;;0.73;;
43857;SDS011;29507;51.284;5.758;2023-03-24T15:26:46;5.30;;;0.65;;
43857;SDS011;29507;51.284;5.758;2023-03-24T15:29:18;2.92;;;0.70;;
43857;SDS011;29507;51.284;5.758;2023-03-24T15:31:44;4.25;;;0.70;;
43857;SDS011;29507;51.284;5.758;2023-03-24T15:34:24;5.68;;;0.93;;
43857;SDS011;29507;51.284;5.758;2023-03-24T15:36:58;6.95;;;0.75;;
43857;SDS011;29507;51.284;5.758;2023-03-24T15:39:28;4.45;;;0.52;;
43857;SDS011;29507;51.284;5.758;2023-03-24T15:41:58;3.00;;;0.68;;
43857;SDS011;29507;51.284;5.758;2023-03-24T15:44:27;2.88;;;1.17;;
43857;SDS011;29507;51.284;5.758;2023-03-24T15:46:57;3.40;;;0.70;;
43857;SDS011;29507;51.284;5.758;2023-03-24T15:49:25;4.93;;;0.68;;
43857;SDS011;29507;51.284;5.758;2023-03-24T15:51:57;2.85;;;0.47;;
43857;SDS011;29507;51.284;5.758;2023-03-24T15:54:28;3.08;;;0.50;;
43857;SDS011;29507;51.284;5.758;2023-03-24T15:56:59;7.22;;;0.77;;
43857;SDS011;29507;51.284;5.758;2023-03-24T15:59:49;1.90;;;0.63;;
43857;SDS011;29507;51.284;5.758;2023-03-24T16:05:14;2.22;;;0.70;;
43857;SDS011;29507;51.284;5.758;2023-03-24T16:08:00;2.50;;;0.70;;
43857;SDS011;29507;51.284;5.758;2023-03-24T16:10:40;3.30;;;0.73;;
43857;SDS011;29507;51.284;5.758;2023-03-24T16:15:42;3.78;;;0.68;;
43857;SDS011;29507;51.284;5.758;2023-03-24T16:18:13;1.80;;;0.40;;
43857;SDS011;29507;51.284;5.758;2023-03-24T16:20:41;3.60;;;0.63;;
43857;SDS011;29507;51.284;5.758;2023-03-24T16:23:07;4.75;;;0.80;;
43857;SDS011;29507;51.284;5.758;2023-03-24T16:25:34;7.82;;;0.95;;
43857;SDS011;29507;51.284;5.758;2023-03-24T16:28:00;3.90;;;0.77;;
43857;SDS011;29507;51.284;5.758;2023-03-24T16:30:26;8.85;;;0.80;;
43857;SDS011;29507;51.284;5.758;2023-03-24T16:33:01;2.40;;;0.70;;
43857;SDS011;29507;51.284;5.758;2023-03-24T16:35:27;7.40;;;0.57;;
43857;SDS011;29507;51.284;5.758;2023-03-24T16:37:53;3.25;;;0.73;;
43857;SDS011;29507;51.284;5.758;2023-03-24T16:43:06;2.72;;;0.80;;
43857;SDS011;29507;51.284;5.758;2023-03-24T16:45:31;5.20;;;0.70;;
43857;SDS011;29507;51.284;5.758;2023-03-24T16:47:57;3.53;;;0.98;;
43857;SDS011;29507;51.284;5.758;2023-03-24T16:50:31;5.90;;;0.70;;
43857;SDS011;29507;51.284;5.758;2023-03-24T16:53:04;3.83;;;0.75;;
43857;SDS011;29507;51.284;5.758;2023-03-24T16:55:33;2.85;;;0.90;;
43857;SDS011;29507;51.284;5.758;2023-03-24T16:58:03;4.22;;;0.70;;
43857;SDS011;29507;51.284;5.758;2023-03-24T17:00:30;3.78;;;0.73;;
43857;SDS011;29507;51.284;5.758;2023-03-24T17:02:57;2.00;;;0.50;;
43857;SDS011;29507;51.284;5.758;2023-03-24T17:05:27;3.30;;;0.85;;
43857;SDS011;29507;51.284;5.758;2023-03-24T17:07:55;4.25;;;0.88;;
43857;SDS011;29507;51.284;5.758;2023-03-24T17:10:22;8.45;;;1.00;;
43857;SDS011;29507;51.284;5.758;2023-03-24T17:12:50;3.45;;;0.82;;
43857;SDS011;29507;51.284;5.758;2023-03-24T17:15:22;4.88;;;0.80;;
43857;SDS011;29507;51.284;5.758;2023-03-24T17:17:49;3.35;;;0.80;;
43857;SDS011;29507;51.284;5.758;2023-03-24T17:20:16;2.22;;;0.68;;
43857;SDS011;29507;51.284;5.758;2023-03-24T17:22:43;6.30;;;0.88;;
43857;SDS011;29507;51.284;5.758;2023-03-24T17:25:14;4.10;;;0.73;;
43857;SDS011;29507;51.284;5.758;2023-03-24T17:27:42;3.47;;;0.70;;
43857;SDS011;29507;51.284;5.758;2023-03-24T17:30:09;2.80;;;0.98;;
43857;SDS011;29507;51.284;5.758;2023-03-24T17:32:40;4.43;;;1.23;;
43857;SDS011;29507;51.284;5.758;2023-03-24T17:35:05;3.95;;;0.70;;
43857;SDS011;29507;51.284;5.758;2023-03-24T17:37:35;4.60;;;0.93;;
43857;SDS011;29507;51.284;5.758;2023-03-24T17:40:01;5.22;;;1.20;;
43857;SDS011;29507;51.284;5.758;2023-03-24T17:42:33;7.22;;;1.25;;
43857;SDS011;29507;51.284;5.758;2023-03-24T17:45:00;5.10;;;0.80;;
43857;SDS011;29507;51.284;5.758;2023-03-24T17:47:25;4.93;;;0.98;;
43857;SDS011;29507;51.284;5.758;2023-03-24T17:49:51;5.07;;;0.77;;
43857;SDS011;29507;51.284;5.758;2023-03-24T17:52:16;3.40;;;1.02;;
43857;SDS011;29507;51.284;5.758;2023-03-24T17:54:42;6.68;;;1.50;;
43857;SDS011;29507;51.284;5.758;2023-03-24T17:57:08;10.55;;;1.30;;
43857;SDS011;29507;51.284;5.758;2023-03-24T17:59:34;3.42;;;1.05;;
43857;SDS011;29507;51.284;5.758;2023-03-24T18:02:01;5.70;;;1.20;;
43857;SDS011;29507;51.284;5.758;2023-03-24T18:04:27;3.63;;;1.00;;
43857;SDS011;29507;51.284;5.758;2023-03-24T18:06:53;5.35;;;1.20;;
43857;SDS011;29507;51.284;5.758;2023-03-24T18:09:19;5.05;;;1.40;;
43857;SDS011;29507;51.284;5.758;2023-03-24T18:11:45;5.30;;;1.25;;